sensor_id;sensor_type;location;lat;lon;timestamp;temperature;humidity
19868;DHT22;10096;51.112;6.776;2023-03-31T00:00:29;11.60;43.90
19868;DHT22;10096;51.112;6.776;2023-03-31T00:03:03;11.90;41.40
19868;DHT22;10096;51.112;6.776;2023-03-31T00:05:39;11.90;20.50
19868;DHT22;10096;51.112;6.776;2023-03-31T00:08:15;11.90;9.30
19868;DHT22;10096;51.112;6.776;2023-03-31T00:11:02;11.60;18.50
19868;DHT22;10096;51.112;6.776;2023-03-31T00:13:40;11.40;20.40
19868;DHT22;10096;51.112;6.776;2023-03-31T00:16:25;11.80;14.30
19868;DHT22;10096;51.112;6.776;2023-03-31T00:19:06;11.70;42.60
19868;DHT22;10096;51.112;6.776;2023-03-31T00:21:48;11.60;96.80
19868;DHT22;10096;51.112;6.776;2023-03-31T00:24:23;11.80;99.90
19868;DHT22;10096;51.112;6.776;2023-03-31T00:27:08;11.80;99.90
19868;DHT22;10096;51.112;6.776;2023-03-31T00:29:41;11.70;99.90
19868;DHT22;10096;51.112;6.776;2023-03-31T00:32:29;11.70;99.90
19868;DHT22;10096;51.112;6.776;2023-03-31T00:35:00;11.60;99.90
19868;DHT22;10096;51.112;6.776;2023-03-31T00:37:47;11.70;99.90
19868;DHT22;10096;51.112;6.776;2023-03-31T00:40:34;11.70;99.90
19868;DHT22;10096;51.112;6.776;2023-03-31T00:43:15;11.50;1.00
19868;DHT22;10096;51.112;6.776;2023-03-31T00:45:50;11.60;1.00
19868;DHT22;10096;51.112;6.776;2023-03-31T00:48:19;11.70;1.00
19868;DHT22;10096;51.112;6.776;2023-03-31T00:50:52;11.70;1.00
19868;DHT22;10096;51.112;6.776;2023-03-31T00:53:37;11.70;1.00
19868;DHT22;10096;51.112;6.776;2023-03-31T00:56:10;11.60;1.00
19868;DHT22;10096;51.112;6.776;2023-03-31T00:59:00;11.50;1.00
19868;DHT22;10096;51.112;6.776;2023-03-31T01:01:30;11.40;1.00
19868;DHT22;10096;51.112;6.776;2023-03-31T01:04:00;11.40;42.10
19868;DHT22;10096;51.112;6.776;2023-03-31T01:06:32;11.40;99.90
19868;DHT22;10096;51.112;6.776;2023-03-31T01:09:01;11.30;99.90
19868;DHT22;10096;51.112;6.776;2023-03-31T01:11:35;11.30;99.90
19868;DHT22;10096;51.112;6.776;2023-03-31T01:14:08;11.00;99.90
19868;DHT22;10096;51.112;6.776;2023-03-31T01:16:38;11.30;99.90
19868;DHT22;10096;51.112;6.776;2023-03-31T01:19:14;11.20;99.90
19868;DHT22;10096;51.112;6.776;2023-03-31T01:22:07;11.40;99.90
19868;DHT22;10096;51.112;6.776;2023-03-31T01:25:14;11.20;99.90
19868;DHT22;10096;51.112;6.776;2023-03-31T01:28:06;11.20;99.90
19868;DHT22;10096;51.112;6.776;2023-03-31T01:34:01;11.20;99.90
19868;DHT22;10096;51.112;6.776;2023-03-31T01:42:38;11.10;99.90
19868;DHT22;10096;51.112;6.776;2023-03-31T01:45:27;11.20;99.90
19868;DHT22;10096;51.112;6.776;2023-03-31T01:48:11;11.20;99.90
19868;DHT22;10096;51.112;6.776;2023-03-31T01:50:45;11.20;99.90
19868;DHT22;10096;51.112;6.776;2023-03-31T01:53:32;11.50;99.90
19868;DHT22;10096;51.112;6.776;2023-03-31T01:56:09;11.40;99.90
19868;DHT22;10096;51.112;6.776;2023-03-31T01:58:41;11.30;99.90
19868;DHT22;10096;51.112;6.776;2023-03-31T02:01:15;11.40;99.90
19868;DHT22;10096;51.112;6.776;2023-03-31T02:03:48;11.40;99.90
19868;DHT22;10096;51.112;6.776;2023-03-31T02:06:34;11.60;99.90
19868;DHT22;10096;51.112;6.776;2023-03-31T02:09:07;11.50;99.90
19868;DHT22;10096;51.112;6.776;2023-03-31T02:11:38;11.50;99.90
19868;DHT22;10096;51.112;6.776;2023-03-31T02:14:09;11.90;99.90
19868;DHT22;10096;51.112;6.776;2023-03-31T02:16:39;11.80;95.40
19868;DHT22;10096;51.112;6.776;2023-03-31T02:19:14;11.80;23.30
19868;DHT22;10096;51.112;6.776;2023-03-31T02:21:46;11.70;6.30
19868;DHT22;10096;51.112;6.776;2023-03-31T02:24:27;11.70;1.00
19868;DHT22;10096;51.112;6.776;2023-03-31T02:27:02;11.90;1.00
19868;DHT22;10096;51.112;6.776;2023-03-31T02:29:31;11.80;1.00
19868;DHT22;10096;51.112;6.776;2023-03-31T02:32:02;11.80;1.00
19868;DHT22;10096;51.112;6.776;2023-03-31T02:34:32;11.70;1.00
19868;DHT22;10096;51.112;6.776;2023-03-31T02:37:00;11.80;1.00
19868;DHT22;10096;51.112;6.776;2023-03-31T02:39:33;12.00;1.00
19868;DHT22;10096;51.112;6.776;2023-03-31T02:42:02;11.80;1.00
19868;DHT22;10096;51.112;6.776;2023-03-31T02:44:32;11.80;1.00
19868;DHT22;10096;51.112;6.776;2023-03-31T02:46:59;11.70;1.00
19868;DHT22;10096;51.112;6.776;2023-03-31T02:49:26;11.70;1.00
19868;DHT22;10096;51.112;6.776;2023-03-31T02:55:28;11.60;25.50
19868;DHT22;10096;51.112;6.776;2023-03-31T02:58:31;11.50;88.60
19868;DHT22;10096;51.112;6.776;2023-03-31T03:01:10;11.50;99.90
19868;DHT22;10096;51.112;6.776;2023-03-31T03:03:49;11.50;99.90
19868;DHT22;10096;51.112;6.776;2023-03-31T03:06:33;11.50;99.90
19868;DHT22;10096;51.112;6.776;2023-03-31T03:09:21;11.40;99.90
19868;DHT22;10096;51.112;6.776;2023-03-31T03:12:03;11.50;99.90
19868;DHT22;10096;51.112;6.776;2023-03-31T03:14:41;11.40;99.90
19868;DHT22;10096;51.112;6.776;2023-03-31T03:17:15;11.40;99.90
19868;DHT22;10096;51.112;6.776;2023-03-31T03:19:43;11.50;81.40
19868;DHT22;10096;51.112;6.776;2023-03-31T03:22:16;11.40;52.50
19868;DHT22;10096;51.112;6.776;2023-03-31T03:24:46;11.40;23.50
19868;DHT22;10096;51.112;6.776;2023-03-31T03:27:12;11.40;1.00
19868;DHT22;10096;51.112;6.776;2023-03-31T03:29:41;11.50;5.70
19868;DHT22;10096;51.112;6.776;2023-03-31T03:32:08;11.20;23.70
19868;DHT22;10096;51.112;6.776;2023-03-31T03:34:35;11.50;76.50
19868;DHT22;10096;51.112;6.776;2023-03-31T03:37:05;11.30;68.20
19868;DHT22;10096;51.112;6.776;2023-03-31T03:39:32;11.50;99.90
19868;DHT22;10096;51.112;6.776;2023-03-31T03:42:00;11.30;93.30
19868;DHT22;10096;51.112;6.776;2023-03-31T03:44:27;11.30;98.60
19868;DHT22;10096;51.112;6.776;2023-03-31T03:46:56;11.30;99.90
19868;DHT22;10096;51.112;6.776;2023-03-31T03:49:23;11.40;99.90
19868;DHT22;10096;51.112;6.776;2023-03-31T03:51:50;11.40;94.80
19868;DHT22;10096;51.112;6.776;2023-03-31T03:54:17;11.30;85.90
19868;DHT22;10096;51.112;6.776;2023-03-31T03:56:44;11.30;60.10
19868;DHT22;10096;51.112;6.776;2023-03-31T03:59:19;11.40;92.60
19868;DHT22;10096;51.112;6.776;2023-03-31T04:01:49;11.50;63.00
19868;DHT22;10096;51.112;6.776;2023-03-31T04:04:18;11.40;46.20
19868;DHT22;10096;51.112;6.776;2023-03-31T04:06:45;11.30;33.00
19868;DHT22;10096;51.112;6.776;2023-03-31T04:09:13;11.60;1.00
19868;DHT22;10096;51.112;6.776;2023-03-31T04:11:41;11.50;1.00
19868;DHT22;10096;51.112;6.776;2023-03-31T04:14:08;11.40;1.00
19868;DHT22;10096;51.112;6.776;2023-03-31T04:16:35;11.40;1.00
19868;DHT22;10096;51.112;6.776;2023-03-31T04:19:07;11.50;1.00
19868;DHT22;10096;51.112;6.776;2023-03-31T04:21:37;11.50;1.00
19868;DHT22;10096;51.112;6.776;2023-03-31T04:24:10;11.50;1.00
19868;DHT22;10096;51.112;6.776;2023-03-31T04:26:46;11.50;1.00
19868;DHT22;10096;51.112;6.776;2023-03-31T04:29:15;11.70;1.00
19868;DHT22;10096;51.112;6.776;2023-03-31T04:31:54;11.60;1.00
19868;DHT22;10096;51.112;6.776;2023-03-31T04:34:24;11.50;1.00
19868;DHT22;10096;51.112;6.776;2023-03-31T04:37:01;11.40;1.00
19868;DHT22;10096;51.112;6.776;2023-03-31T04:39:29;11.30;1.00
19868;DHT22;10096;51.112;6.776;2023-03-31T04:41:58;11.40;1.00
19868;DHT22;10096;51.112;6.776;2023-03-31T04:44:25;11.50;1.00
19868;DHT22;10096;51.112;6.776;2023-03-31T04:46:53;11.30;1.00
19868;DHT22;10096;51.112;6.776;2023-03-31T04:49:20;11.50;1.00
19868;DHT22;10096;51.112;6.776;2023-03-31T04:51:48;11.40;1.00
19868;DHT22;10096;51.112;6.776;2023-03-31T04:54:17;11.50;1.00
19868;DHT22;10096;51.112;6.776;2023-03-31T04:56:47;11.20;1.00
19868;DHT22;10096;51.112;6.776;2023-03-31T04:59:14;11.10;1.00
19868;DHT22;10096;51.112;6.776;2023-03-31T05:01:41;11.20;1.00
19868;DHT22;10096;51.112;6.776;2023-03-31T05:04:10;11.20;1.00
19868;DHT22;10096;51.112;6.776;2023-03-31T05:06:39;11.10;1.00
19868;DHT22;10096;51.112;6.776;2023-03-31T05:09:06;11.10;1.00
19868;DHT22;10096;51.112;6.776;2023-03-31T05:11:35;11.30;1.00
19868;DHT22;10096;51.112;6.776;2023-03-31T05:14:05;11.40;99.90
19868;DHT22;10096;51.112;6.776;2023-03-31T05:16:35;11.40;99.90
19868;DHT22;10096;51.112;6.776;2023-03-31T05:19:04;11.20;99.90
19868;DHT22;10096;51.112;6.776;2023-03-31T05:21:34;11.20;99.90
19868;DHT22;10096;51.112;6.776;2023-03-31T05:24:06;11.40;99.90
19868;DHT22;10096;51.112;6.776;2023-03-31T05:26:34;11.40;99.90
19868;DHT22;10096;51.112;6.776;2023-03-31T05:29:01;11.20;99.90
19868;DHT22;10096;51.112;6.776;2023-03-31T05:31:28;11.20;99.90
19868;DHT22;10096;51.112;6.776;2023-03-31T05:33:56;11.50;99.90
19868;DHT22;10096;51.112;6.776;2023-03-31T05:36:26;11.30;99.90
19868;DHT22;10096;51.112;6.776;2023-03-31T05:38:57;11.60;99.90
19868;DHT22;10096;51.112;6.776;2023-03-31T05:41:24;11.40;99.90
19868;DHT22;10096;51.112;6.776;2023-03-31T05:43:53;11.40;99.90
19868;DHT22;10096;51.112;6.776;2023-03-31T05:46:24;11.50;99.90
19868;DHT22;10096;51.112;6.776;2023-03-31T05:48:55;11.60;99.90
19868;DHT22;10096;51.112;6.776;2023-03-31T05:51:23;11.50;99.90
19868;DHT22;10096;51.112;6.776;2023-03-31T05:53:51;11.50;99.90
19868;DHT22;10096;51.112;6.776;2023-03-31T05:56:18;11.50;99.90
19868;DHT22;10096;51.112;6.776;2023-03-31T05:58:49;11.50;99.90
19868;DHT22;10096;51.112;6.776;2023-03-31T06:01:18;11.50;99.90
19868;DHT22;10096;51.112;6.776;2023-03-31T06:03:47;11.50;99.90
19868;DHT22;10096;51.112;6.776;2023-03-31T06:06:14;11.70;99.90
19868;DHT22;10096;51.112;6.776;2023-03-31T06:08:44;11.40;99.90
19868;DHT22;10096;51.112;6.776;2023-03-31T06:11:13;11.60;99.90
19868;DHT22;10096;51.112;6.776;2023-03-31T06:13:41;11.30;99.90
19868;DHT22;10096;51.112;6.776;2023-03-31T06:16:12;11.40;99.90
19868;DHT22;10096;51.112;6.776;2023-03-31T06:18:42;11.50;99.90
19868;DHT22;10096;51.112;6.776;2023-03-31T06:21:12;11.20;99.90
19868;DHT22;10096;51.112;6.776;2023-03-31T06:23:40;11.20;99.90
19868;DHT22;10096;51.112;6.776;2023-03-31T06:26:11;11.20;99.90
19868;DHT22;10096;51.112;6.776;2023-03-31T06:28:39;11.20;99.90
19868;DHT22;10096;51.112;6.776;2023-03-31T06:31:08;11.20;99.90
19868;DHT22;10096;51.112;6.776;2023-03-31T06:33:38;11.40;99.90
19868;DHT22;10096;51.112;6.776;2023-03-31T06:36:08;11.40;99.90
19868;DHT22;10096;51.112;6.776;2023-03-31T06:38:36;11.30;99.90
19868;DHT22;10096;51.112;6.776;2023-03-31T06:41:07;11.20;99.90
19868;DHT22;10096;51.112;6.776;2023-03-31T06:43:36;11.50;99.90
19868;DHT22;10096;51.112;6.776;2023-03-31T06:46:05;11.50;99.90
19868;DHT22;10096;51.112;6.776;2023-03-31T06:48:32;11.60;99.90
19868;DHT22;10096;51.112;6.776;2023-03-31T06:51:01;11.40;99.90
19868;DHT22;10096;51.112;6.776;2023-03-31T06:53:30;11.50;99.90
19868;DHT22;10096;51.112;6.776;2023-03-31T06:55:57;11.50;99.90
19868;DHT22;10096;51.112;6.776;2023-03-31T06:58:24;11.30;99.90
19868;DHT22;10096;51.112;6.776;2023-03-31T07:01:07;11.30;99.90
19868;DHT22;10096;51.112;6.776;2023-03-31T07:03:36;11.40;99.90
19868;DHT22;10096;51.112;6.776;2023-03-31T07:06:04;11.50;99.90
19868;DHT22;10096;51.112;6.776;2023-03-31T07:08:33;11.60;99.90
19868;DHT22;10096;51.112;6.776;2023-03-31T07:11:01;11.60;99.90
19868;DHT22;10096;51.112;6.776;2023-03-31T07:13:31;11.80;99.90
19868;DHT22;10096;51.112;6.776;2023-03-31T07:15:58;11.90;99.90
19868;DHT22;10096;51.112;6.776;2023-03-31T07:18:25;12.10;62.10
19868;DHT22;10096;51.112;6.776;2023-03-31T07:20:57;12.00;88.80
19868;DHT22;10096;51.112;6.776;2023-03-31T07:23:25;12.30;57.10
19868;DHT22;10096;51.112;6.776;2023-03-31T07:25:55;12.10;59.10
19868;DHT22;10096;51.112;6.776;2023-03-31T07:28:30;12.10;19.30
19868;DHT22;10096;51.112;6.776;2023-03-31T07:30:57;12.40;29.10
19868;DHT22;10096;51.112;6.776;2023-03-31T07:33:24;12.50;21.20
19868;DHT22;10096;51.112;6.776;2023-03-31T07:35:51;12.30;15.30
19868;DHT22;10096;51.112;6.776;2023-03-31T07:38:18;12.90;15.20
19868;DHT22;10096;51.112;6.776;2023-03-31T07:40:48;12.70;1.00
19868;DHT22;10096;51.112;6.776;2023-03-31T07:43:17;13.10;1.00
19868;DHT22;10096;51.112;6.776;2023-03-31T07:45:44;13.80;1.00
19868;DHT22;10096;51.112;6.776;2023-03-31T07:48:11;14.30;1.00
19868;DHT22;10096;51.112;6.776;2023-03-31T07:50:38;15.60;1.00
19868;DHT22;10096;51.112;6.776;2023-03-31T07:53:05;16.30;1.00
19868;DHT22;10096;51.112;6.776;2023-03-31T07:55:32;15.60;1.00
19868;DHT22;10096;51.112;6.776;2023-03-31T07:58:02;15.50;1.00
19868;DHT22;10096;51.112;6.776;2023-03-31T08:00:31;15.30;1.00
19868;DHT22;10096;51.112;6.776;2023-03-31T08:02:58;15.10;1.00
19868;DHT22;10096;51.112;6.776;2023-03-31T08:05:28;15.00;1.00
19868;DHT22;10096;51.112;6.776;2023-03-31T08:07:55;15.20;1.00
19868;DHT22;10096;51.112;6.776;2023-03-31T08:10:26;14.90;1.00
19868;DHT22;10096;51.112;6.776;2023-03-31T08:12:54;14.90;1.00
19868;DHT22;10096;51.112;6.776;2023-03-31T08:15:21;14.80;1.00
19868;DHT22;10096;51.112;6.776;2023-03-31T08:17:52;14.30;1.00
19868;DHT22;10096;51.112;6.776;2023-03-31T08:20:22;14.40;1.00
19868;DHT22;10096;51.112;6.776;2023-03-31T08:22:54;14.20;1.00
19868;DHT22;10096;51.112;6.776;2023-03-31T08:25:21;14.10;1.00
19868;DHT22;10096;51.112;6.776;2023-03-31T08:27:49;14.30;1.00
19868;DHT22;10096;51.112;6.776;2023-03-31T08:30:17;14.20;1.00
19868;DHT22;10096;51.112;6.776;2023-03-31T08:32:44;14.10;1.00
19868;DHT22;10096;51.112;6.776;2023-03-31T08:35:18;14.10;1.00
19868;DHT22;10096;51.112;6.776;2023-03-31T08:37:45;14.30;1.00
19868;DHT22;10096;51.112;6.776;2023-03-31T08:40:17;14.20;1.00
19868;DHT22;10096;51.112;6.776;2023-03-31T08:42:49;14.30;1.00
19868;DHT22;10096;51.112;6.776;2023-03-31T08:45:21;14.30;1.00
19868;DHT22;10096;51.112;6.776;2023-03-31T08:47:52;14.50;1.00
19868;DHT22;10096;51.112;6.776;2023-03-31T08:50:34;14.80;1.00
19868;DHT22;10096;51.112;6.776;2023-03-31T08:53:04;15.20;1.00
19868;DHT22;10096;51.112;6.776;2023-03-31T08:55:42;15.40;1.00
19868;DHT22;10096;51.112;6.776;2023-03-31T08:58:28;15.70;1.00
19868;DHT22;10096;51.112;6.776;2023-03-31T09:01:05;16.30;1.00
19868;DHT22;10096;51.112;6.776;2023-03-31T09:03:38;16.60;1.00
19868;DHT22;10096;51.112;6.776;2023-03-31T09:06:28;17.10;1.00
19868;DHT22;10096;51.112;6.776;2023-03-31T09:09:01;17.00;1.00
19868;DHT22;10096;51.112;6.776;2023-03-31T09:11:34;16.90;1.00
19868;DHT22;10096;51.112;6.776;2023-03-31T09:14:17;17.00;1.00
19868;DHT22;10096;51.112;6.776;2023-03-31T09:17:01;16.80;1.00
19868;DHT22;10096;51.112;6.776;2023-03-31T09:30:20;17.00;1.00
19868;DHT22;10096;51.112;6.776;2023-03-31T09:32:51;17.10;1.00
19868;DHT22;10096;51.112;6.776;2023-03-31T09:35:20;17.20;1.00
19868;DHT22;10096;51.112;6.776;2023-03-31T09:38:00;16.90;1.00
19868;DHT22;10096;51.112;6.776;2023-03-31T09:40:36;17.00;1.00
19868;DHT22;10096;51.112;6.776;2023-03-31T09:43:18;17.00;1.00
19868;DHT22;10096;51.112;6.776;2023-03-31T09:45:55;16.60;99.90
19868;DHT22;10096;51.112;6.776;2023-03-31T09:48:26;16.80;99.90
19868;DHT22;10096;51.112;6.776;2023-03-31T09:51:00;16.90;99.90
19868;DHT22;10096;51.112;6.776;2023-03-31T09:53:33;17.10;99.90
19868;DHT22;10096;51.112;6.776;2023-03-31T09:56:01;16.90;99.90
19868;DHT22;10096;51.112;6.776;2023-03-31T09:58:29;16.60;99.90
19868;DHT22;10096;51.112;6.776;2023-03-31T10:01:13;16.70;99.90
19868;DHT22;10096;51.112;6.776;2023-03-31T10:03:48;16.40;1.00
19868;DHT22;10096;51.112;6.776;2023-03-31T10:06:23;16.70;99.90
19868;DHT22;10096;51.112;6.776;2023-03-31T10:08:53;16.80;1.00
19868;DHT22;10096;51.112;6.776;2023-03-31T10:11:22;17.00;99.90
19868;DHT22;10096;51.112;6.776;2023-03-31T10:14:00;16.60;99.90
19868;DHT22;10096;51.112;6.776;2023-03-31T10:16:32;16.20;1.00
19868;DHT22;10096;51.112;6.776;2023-03-31T10:19:17;16.60;99.90
19868;DHT22;10096;51.112;6.776;2023-03-31T10:21:47;17.10;99.90
19868;DHT22;10096;51.112;6.776;2023-03-31T10:24:18;17.30;99.90
19868;DHT22;10096;51.112;6.776;2023-03-31T10:26:47;17.30;99.90
19868;DHT22;10096;51.112;6.776;2023-03-31T10:29:20;17.50;99.90
19868;DHT22;10096;51.112;6.776;2023-03-31T10:31:52;17.60;99.90
19868;DHT22;10096;51.112;6.776;2023-03-31T10:34:20;17.60;99.90
19868;DHT22;10096;51.112;6.776;2023-03-31T10:36:52;17.80;99.90
19868;DHT22;10096;51.112;6.776;2023-03-31T10:39:45;18.10;99.90
19868;DHT22;10096;51.112;6.776;2023-03-31T10:42:19;18.20;99.90
19868;DHT22;10096;51.112;6.776;2023-03-31T10:44:47;18.40;99.90
19868;DHT22;10096;51.112;6.776;2023-03-31T10:47:21;18.60;99.90
19868;DHT22;10096;51.112;6.776;2023-03-31T10:49:55;18.20;99.90
19868;DHT22;10096;51.112;6.776;2023-03-31T10:52:25;17.90;99.90
19868;DHT22;10096;51.112;6.776;2023-03-31T10:54:54;17.30;99.90
19868;DHT22;10096;51.112;6.776;2023-03-31T10:57:33;15.90;1.00
19868;DHT22;10096;51.112;6.776;2023-03-31T11:00:11;15.10;1.00
19868;DHT22;10096;51.112;6.776;2023-03-31T11:02:56;14.50;1.00
19868;DHT22;10096;51.112;6.776;2023-03-31T11:05:31;14.10;1.00
19868;DHT22;10096;51.112;6.776;2023-03-31T11:08:12;14.00;1.00
19868;DHT22;10096;51.112;6.776;2023-03-31T11:10:53;14.00;1.00
19868;DHT22;10096;51.112;6.776;2023-03-31T11:13:30;13.90;1.00
19868;DHT22;10096;51.112;6.776;2023-03-31T11:16:12;13.80;1.00
19868;DHT22;10096;51.112;6.776;2023-03-31T11:19:02;13.50;1.00
19868;DHT22;10096;51.112;6.776;2023-03-31T11:21:41;13.50;1.00
19868;DHT22;10096;51.112;6.776;2023-03-31T11:24:20;13.40;1.00
19868;DHT22;10096;51.112;6.776;2023-03-31T11:26:57;13.80;1.00
19868;DHT22;10096;51.112;6.776;2023-03-31T11:29:32;14.00;1.00
19868;DHT22;10096;51.112;6.776;2023-03-31T11:32:28;14.50;1.00
19868;DHT22;10096;51.112;6.776;2023-03-31T11:35:09;14.40;1.00
19868;DHT22;10096;51.112;6.776;2023-03-31T11:37:52;14.70;1.00
19868;DHT22;10096;51.112;6.776;2023-03-31T11:40:43;14.90;1.00
19868;DHT22;10096;51.112;6.776;2023-03-31T11:43:21;15.10;1.00
19868;DHT22;10096;51.112;6.776;2023-03-31T11:45:52;15.20;1.00
19868;DHT22;10096;51.112;6.776;2023-03-31T11:48:29;15.40;1.00
19868;DHT22;10096;51.112;6.776;2023-03-31T11:51:00;15.40;1.00
19868;DHT22;10096;51.112;6.776;2023-03-31T11:53:31;15.60;1.00
19868;DHT22;10096;51.112;6.776;2023-03-31T11:56:00;15.50;1.00
19868;DHT22;10096;51.112;6.776;2023-03-31T11:58:34;15.70;1.00
19868;DHT22;10096;51.112;6.776;2023-03-31T12:01:08;15.90;1.00
19868;DHT22;10096;51.112;6.776;2023-03-31T12:03:48;16.20;1.00
19868;DHT22;10096;51.112;6.776;2023-03-31T12:06:21;16.10;1.00
19868;DHT22;10096;51.112;6.776;2023-03-31T12:08:57;15.80;1.00
19868;DHT22;10096;51.112;6.776;2023-03-31T12:11:34;15.70;1.00
19868;DHT22;10096;51.112;6.776;2023-03-31T12:14:12;15.60;1.00
19868;DHT22;10096;51.112;6.776;2023-03-31T12:16:42;15.40;1.00
19868;DHT22;10096;51.112;6.776;2023-03-31T12:19:13;15.40;1.00
19868;DHT22;10096;51.112;6.776;2023-03-31T12:21:49;15.70;1.00
19868;DHT22;10096;51.112;6.776;2023-03-31T12:24:18;15.70;1.00
19868;DHT22;10096;51.112;6.776;2023-03-31T12:26:56;16.10;1.00
19868;DHT22;10096;51.112;6.776;2023-03-31T12:29:30;16.40;1.00
19868;DHT22;10096;51.112;6.776;2023-03-31T12:32:04;16.50;1.00
19868;DHT22;10096;51.112;6.776;2023-03-31T12:34:37;16.90;1.00
19868;DHT22;10096;51.112;6.776;2023-03-31T12:40:16;17.30;1.00
19868;DHT22;10096;51.112;6.776;2023-03-31T12:42:58;17.60;99.90
19868;DHT22;10096;51.112;6.776;2023-03-31T12:45:35;17.20;99.90
19868;DHT22;10096;51.112;6.776;2023-03-31T12:48:26;17.40;1.00
19868;DHT22;10096;51.112;6.776;2023-03-31T12:51:05;17.00;99.90
19868;DHT22;10096;51.112;6.776;2023-03-31T12:53:46;16.90;99.90
19868;DHT22;10096;51.112;6.776;2023-03-31T12:56:17;17.10;99.90
19868;DHT22;10096;51.112;6.776;2023-03-31T12:58:45;16.80;1.00
19868;DHT22;10096;51.112;6.776;2023-03-31T13:01:14;16.90;99.90
19868;DHT22;10096;51.112;6.776;2023-03-31T13:03:47;17.20;1.00
19868;DHT22;10096;51.112;6.776;2023-03-31T13:09:43;17.00;99.90
19868;DHT22;10096;51.112;6.776;2023-03-31T13:12:14;17.00;99.90
19868;DHT22;10096;51.112;6.776;2023-03-31T13:14:44;17.20;99.90
19868;DHT22;10096;51.112;6.776;2023-03-31T13:17:23;17.00;99.90
19868;DHT22;10096;51.112;6.776;2023-03-31T13:19:52;16.80;99.90
19868;DHT22;10096;51.112;6.776;2023-03-31T13:22:32;16.80;99.90
19868;DHT22;10096;51.112;6.776;2023-03-31T13:25:30;16.90;99.90
19868;DHT22;10096;51.112;6.776;2023-03-31T13:28:13;17.10;99.90
19868;DHT22;10096;51.112;6.776;2023-03-31T13:30:52;17.50;99.90
19868;DHT22;10096;51.112;6.776;2023-03-31T13:33:23;17.10;99.90
19868;DHT22;10096;51.112;6.776;2023-03-31T13:35:56;16.80;99.90
19868;DHT22;10096;51.112;6.776;2023-03-31T13:38:34;17.00;99.90
19868;DHT22;10096;51.112;6.776;2023-03-31T13:41:14;17.20;99.90
19868;DHT22;10096;51.112;6.776;2023-03-31T13:44:27;17.20;99.90
19868;DHT22;10096;51.112;6.776;2023-03-31T13:47:42;17.20;99.90
19868;DHT22;10096;51.112;6.776;2023-03-31T13:50:43;16.60;99.90
19868;DHT22;10096;51.112;6.776;2023-03-31T13:53:29;16.80;99.90
19868;DHT22;10096;51.112;6.776;2023-03-31T13:56:14;16.90;99.90
19868;DHT22;10096;51.112;6.776;2023-03-31T13:59:10;16.90;99.90
19868;DHT22;10096;51.112;6.776;2023-03-31T14:05:07;16.90;99.90
19868;DHT22;10096;51.112;6.776;2023-03-31T14:07:43;17.10;99.90
19868;DHT22;10096;51.112;6.776;2023-03-31T14:10:22;17.10;99.90
19868;DHT22;10096;51.112;6.776;2023-03-31T14:13:08;17.00;99.90
19868;DHT22;10096;51.112;6.776;2023-03-31T14:15:38;16.90;99.90
19868;DHT22;10096;51.112;6.776;2023-03-31T14:18:06;17.00;99.90
19868;DHT22;10096;51.112;6.776;2023-03-31T14:20:47;17.30;99.90
19868;DHT22;10096;51.112;6.776;2023-03-31T14:23:34;16.90;99.90
19868;DHT22;10096;51.112;6.776;2023-03-31T14:26:09;16.50;99.90
19868;DHT22;10096;51.112;6.776;2023-03-31T14:29:01;16.40;99.90
19868;DHT22;10096;51.112;6.776;2023-03-31T14:31:38;16.40;99.90
19868;DHT22;10096;51.112;6.776;2023-03-31T14:34:34;16.10;99.90
19868;DHT22;10096;51.112;6.776;2023-03-31T14:37:12;16.00;99.90
19868;DHT22;10096;51.112;6.776;2023-03-31T14:39:44;15.90;99.90
19868;DHT22;10096;51.112;6.776;2023-03-31T14:42:16;15.90;99.90
19868;DHT22;10096;51.112;6.776;2023-03-31T14:44:45;15.90;99.90
19868;DHT22;10096;51.112;6.776;2023-03-31T14:47:19;15.90;99.90
19868;DHT22;10096;51.112;6.776;2023-03-31T14:49:47;15.80;99.90
19868;DHT22;10096;51.112;6.776;2023-03-31T14:52:16;15.70;99.90
19868;DHT22;10096;51.112;6.776;2023-03-31T14:54:46;15.90;99.90
19868;DHT22;10096;51.112;6.776;2023-03-31T14:57:18;16.00;99.90
19868;DHT22;10096;51.112;6.776;2023-03-31T14:59:49;15.80;99.90
19868;DHT22;10096;51.112;6.776;2023-03-31T15:02:22;15.60;99.90
19868;DHT22;10096;51.112;6.776;2023-03-31T15:04:51;15.60;99.90
19868;DHT22;10096;51.112;6.776;2023-03-31T15:07:23;15.50;99.90
19868;DHT22;10096;51.112;6.776;2023-03-31T15:09:52;15.10;1.00
19868;DHT22;10096;51.112;6.776;2023-03-31T15:12:28;14.90;1.00
19868;DHT22;10096;51.112;6.776;2023-03-31T15:15:02;14.70;1.00
19868;DHT22;10096;51.112;6.776;2023-03-31T15:17:31;14.40;1.00
19868;DHT22;10096;51.112;6.776;2023-03-31T15:20:12;14.10;1.00
19868;DHT22;10096;51.112;6.776;2023-03-31T15:22:49;13.90;1.00
19868;DHT22;10096;51.112;6.776;2023-03-31T15:25:18;13.80;1.00
19868;DHT22;10096;51.112;6.776;2023-03-31T15:27:47;13.80;1.00
19868;DHT22;10096;51.112;6.776;2023-03-31T15:30:18;14.10;1.00
19868;DHT22;10096;51.112;6.776;2023-03-31T15:32:47;13.90;1.00
19868;DHT22;10096;51.112;6.776;2023-03-31T15:35:20;13.70;1.00
19868;DHT22;10096;51.112;6.776;2023-03-31T15:37:49;13.70;1.00
19868;DHT22;10096;51.112;6.776;2023-03-31T15:40:23;13.80;1.00
19868;DHT22;10096;51.112;6.776;2023-03-31T15:42:54;13.90;1.00
19868;DHT22;10096;51.112;6.776;2023-03-31T15:45:46;14.10;1.00
19868;DHT22;10096;51.112;6.776;2023-03-31T15:48:18;14.40;1.00
19868;DHT22;10096;51.112;6.776;2023-03-31T15:50:45;14.40;1.00
19868;DHT22;10096;51.112;6.776;2023-03-31T15:53:26;14.00;1.00
19868;DHT22;10096;51.112;6.776;2023-03-31T15:55:57;14.10;1.00
19868;DHT22;10096;51.112;6.776;2023-03-31T15:58:44;14.10;1.00
19868;DHT22;10096;51.112;6.776;2023-03-31T16:01:14;14.10;1.00
19868;DHT22;10096;51.112;6.776;2023-03-31T16:03:44;14.20;1.00
19868;DHT22;10096;51.112;6.776;2023-03-31T16:06:20;14.00;1.00
19868;DHT22;10096;51.112;6.776;2023-03-31T16:08:55;14.00;1.00
19868;DHT22;10096;51.112;6.776;2023-03-31T16:11:26;14.20;1.00
19868;DHT22;10096;51.112;6.776;2023-03-31T16:13:58;14.10;1.00
19868;DHT22;10096;51.112;6.776;2023-03-31T16:16:45;14.20;1.00
19868;DHT22;10096;51.112;6.776;2023-03-31T16:19:13;14.10;1.00
19868;DHT22;10096;51.112;6.776;2023-03-31T16:21:48;14.30;1.00
19868;DHT22;10096;51.112;6.776;2023-03-31T16:24:18;14.20;1.00
19868;DHT22;10096;51.112;6.776;2023-03-31T16:26:47;14.00;1.00
19868;DHT22;10096;51.112;6.776;2023-03-31T16:29:19;14.20;1.00
19868;DHT22;10096;51.112;6.776;2023-03-31T16:31:48;14.20;1.00
19868;DHT22;10096;51.112;6.776;2023-03-31T16:34:15;14.20;1.00
19868;DHT22;10096;51.112;6.776;2023-03-31T16:36:42;14.00;1.00
19868;DHT22;10096;51.112;6.776;2023-03-31T16:39:12;14.00;1.00
19868;DHT22;10096;51.112;6.776;2023-03-31T16:41:43;14.00;1.00
19868;DHT22;10096;51.112;6.776;2023-03-31T16:44:10;14.20;1.00
19868;DHT22;10096;51.112;6.776;2023-03-31T16:46:45;13.90;1.00
19868;DHT22;10096;51.112;6.776;2023-03-31T16:49:15;13.80;1.00
19868;DHT22;10096;51.112;6.776;2023-03-31T16:51:42;13.90;1.00